Russell, Canada
Current Conditions -  °F | °C
As of 6:00 PM on Wednesday 22 Oct 2014 (Local Time) from CYDN Reporting Station
Haze Haze  
Wind Chill: 64°   Ceiling: Unl
Heat Index: 64°   Visibility: 6mi
Dew Point: 48°   Wind: 8mph
Humidity: 56%   Direction: 260°W
Pressure: 29.6"   Gusts: NA
Location:  50.78°N, 101.28°W
Report Text: CYDN 222300Z AUTO 26007KT 6SM HZ CLR 18/09 A2960 RMK SLP032 DENSITY ALT 1900FT
Loading
Personal Weather Stations






























Interactive Weather Map
Tropical Storm Tracking
New forecast layout! Learn more

10-Day Weather Forecast

Advertisements
Track Severe Weather on mobile